createdAt,value
2022-09-27T00:02:59.793Z,4.67
2022-09-27T00:06:05.323Z,5.57
2022-09-27T00:09:07.922Z,4.70
2022-09-27T00:12:10.607Z,3.97
2022-09-27T00:15:15.239Z,5.60
2022-09-27T00:18:17.877Z,3.53
2022-09-27T00:21:20.582Z,3.27
2022-09-27T00:24:24.262Z,6.47
2022-09-27T00:27:28.288Z,5.43
2022-09-27T00:30:32.230Z,3.77
2022-09-27T00:33:34.807Z,4.40
2022-09-27T00:36:37.479Z,4.23
2022-09-27T00:39:40.099Z,3.43
2022-09-27T00:42:42.734Z,4.77
2022-09-27T00:45:51.649Z,4.07
2022-09-27T00:49:05.073Z,3.83
2022-09-27T00:52:14.759Z,4.27
2022-09-27T00:55:22.753Z,4.70
2022-09-27T00:58:31.189Z,6.07
2022-09-27T01:01:35.564Z,5.77
2022-09-27T01:04:40.442Z,2.70
2022-09-27T01:07:43.037Z,4.23
2022-09-27T01:10:54.625Z,5.13
2022-09-27T01:14:11.304Z,4.80
2022-09-27T01:17:27.644Z,2.77
2022-09-27T01:21:03.214Z,2.43
2022-09-27T01:24:43.294Z,4.40
2022-09-27T01:28:09.463Z,3.90
2022-09-27T01:31:22.362Z,3.57
2022-09-27T01:34:30.486Z,3.53
2022-09-27T01:37:39.959Z,2.77
2022-09-27T01:40:50.975Z,4.70
2022-09-27T01:43:58.670Z,4.63
2022-09-27T01:47:06.221Z,7.00
2022-09-27T01:50:14.444Z,6.33
2022-09-27T01:53:22.267Z,5.67
2022-09-27T01:56:31.910Z,5.33
2022-09-27T01:59:39.602Z,10.90
2022-09-27T02:02:47.178Z,3.77
2022-09-27T02:05:54.500Z,5.43
2022-09-27T02:09:02.747Z,4.13
2022-09-27T02:12:10.161Z,3.67
2022-09-27T02:15:16.525Z,3.63
2022-09-27T02:18:29.529Z,4.97
2022-09-27T02:21:42.118Z,3.20
2022-09-27T02:24:51.658Z,3.90
2022-09-27T02:28:00.345Z,5.20
2022-09-27T02:31:03.204Z,3.67
2022-09-27T02:34:11.764Z,3.43
2022-09-27T02:37:14.770Z,3.23
2022-09-27T02:40:17.482Z,3.40
2022-09-27T02:43:22.325Z,5.87
2022-09-27T02:46:53.483Z,4.17
2022-09-27T02:50:09.777Z,6.97
2022-09-27T02:53:23.262Z,4.63
2022-09-27T02:56:35.509Z,3.77
2022-09-27T02:59:49.616Z,11.30
2022-09-27T03:03:00.519Z,3.00
2022-09-27T03:06:09.221Z,3.77
2022-09-27T03:09:18.571Z,4.00
2022-09-27T03:12:25.987Z,3.27
2022-09-27T03:15:28.713Z,3.63
2022-09-27T03:18:31.384Z,3.17
2022-09-27T03:21:35.742Z,3.37
2022-09-27T03:24:38.409Z,3.33
2022-09-27T03:27:41.077Z,2.97
2022-09-27T03:30:45.443Z,2.70
2022-09-27T03:33:48.267Z,3.73
2022-09-27T03:36:52.684Z,4.30
2022-09-27T03:39:55.428Z,5.93
2022-09-27T03:42:58.122Z,4.73
2022-09-27T03:46:00.809Z,4.37
2022-09-27T03:49:03.476Z,3.00
2022-09-27T03:52:07.514Z,6.43
2022-09-27T03:55:11.063Z,3.73
2022-09-27T03:58:13.725Z,4.60
2022-09-27T04:01:16.770Z,4.50
2022-09-27T04:04:19.386Z,6.00
2022-09-27T04:07:24.022Z,3.00
2022-09-27T04:10:27.024Z,3.43
2022-09-27T04:13:29.603Z,3.77
2022-09-27T04:16:33.816Z,4.30
2022-09-27T04:19:36.844Z,3.73
2022-09-27T04:22:44.053Z,3.17
2022-09-27T04:25:46.609Z,3.13
2022-09-27T04:28:54.576Z,3.43
2022-09-27T04:31:57.557Z,3.67
2022-09-27T04:35:17.626Z,4.60
2022-09-27T04:38:23.310Z,5.63
2022-09-27T04:41:27.033Z,3.70
2022-09-27T04:44:29.609Z,4.27
2022-09-27T04:47:33.019Z,3.60
2022-09-27T04:50:36.582Z,3.60
2022-09-27T04:53:40.890Z,7.80
2022-09-27T04:56:43.460Z,3.40
2022-09-27T04:59:46.042Z,7.70
2022-09-27T05:02:49.211Z,4.23
2022-09-27T05:05:51.854Z,3.47
2022-09-27T05:08:55.819Z,6.67
2022-09-27T05:11:58.622Z,5.77
2022-09-27T05:15:01.219Z,3.50
2022-09-27T05:18:03.826Z,4.90
2022-09-27T05:21:06.668Z,4.27
2022-09-27T05:24:10.585Z,3.40
2022-09-27T05:27:18.445Z,4.37
2022-09-27T05:30:21.032Z,3.90
2022-09-27T05:33:23.645Z,3.30
2022-09-27T05:36:26.241Z,4.00
2022-09-27T05:39:30.470Z,4.20
2022-09-27T05:42:33.815Z,4.63
2022-09-27T05:45:36.688Z,4.97
2022-09-27T05:48:39.318Z,4.90
2022-09-27T05:51:42.015Z,5.13
2022-09-27T05:54:45.934Z,7.20
2022-09-27T05:57:59.420Z,5.17
2022-09-27T06:01:02.073Z,6.20
2022-09-27T06:04:05.745Z,5.40
2022-09-27T06:07:08.318Z,6.63
2022-09-27T06:10:12.235Z,6.67
2022-09-27T06:13:16.689Z,10.13
2022-09-27T06:16:19.369Z,7.10
2022-09-27T06:19:22.137Z,9.27
2022-09-27T06:22:24.895Z,7.30
2022-09-27T06:25:28.854Z,8.00
2022-09-27T06:28:31.497Z,7.67
2022-09-27T06:31:34.097Z,9.93
2022-09-27T06:34:36.652Z,8.60
2022-09-27T06:37:39.404Z,8.57
2022-09-27T06:40:45.477Z,11.07
2022-09-27T06:43:49.438Z,9.73
2022-09-27T06:46:52.822Z,10.17
2022-09-27T06:49:55.382Z,9.37
2022-09-27T06:52:57.977Z,9.80
2022-09-27T06:56:02.277Z,12.00
2022-09-27T06:59:22.482Z,12.07
2022-09-27T07:02:25.627Z,11.07
2022-09-27T07:05:29.692Z,10.73
2022-09-27T07:08:32.569Z,7.47
2022-09-27T07:11:37.407Z,8.83
2022-09-27T07:14:40.077Z,8.67
2022-09-27T07:17:42.693Z,7.87
2022-09-27T07:20:45.294Z,6.30
2022-09-27T07:23:48.650Z,4.90
2022-09-27T07:26:52.556Z,8.13
2022-09-27T07:29:55.432Z,5.10
2022-09-27T07:32:59.910Z,3.90
2022-09-27T07:36:08.204Z,3.80
2022-09-27T07:39:11.137Z,7.80
2022-09-27T07:42:15.095Z,4.60
2022-09-27T07:45:17.857Z,4.10
2022-09-27T07:48:20.503Z,3.20
2022-09-27T07:51:23.134Z,4.20
2022-09-27T07:54:25.749Z,4.83
2022-09-27T07:57:30.006Z,1.60
2022-09-27T08:00:32.595Z,2.57
2022-09-27T08:03:35.254Z,3.83
2022-09-27T08:06:37.872Z,2.13
2022-09-27T08:09:40.528Z,4.23
2022-09-27T08:12:46.256Z,2.97
2022-09-27T08:15:50.753Z,4.27
2022-09-27T08:18:53.932Z,4.37
2022-09-27T08:21:58.885Z,4.10
2022-09-27T08:25:01.708Z,1.80
2022-09-27T08:28:06.151Z,2.33
2022-09-27T08:31:08.789Z,2.10
2022-09-27T08:34:11.485Z,2.10
2022-09-27T08:37:14.249Z,2.70
2022-09-27T08:40:18.238Z,1.57
2022-09-27T08:43:36.585Z,2.57
2022-09-27T08:46:50.939Z,1.50
2022-09-27T08:50:00.437Z,2.53
2022-09-27T08:53:08.621Z,2.33
2022-09-27T08:56:13.417Z,4.70
2022-09-27T08:59:21.968Z,3.20
2022-09-27T09:02:26.418Z,4.70
2022-09-27T09:05:33.439Z,2.03
2022-09-27T09:08:47.441Z,3.20
2022-09-27T09:12:18.884Z,1.93
2022-09-27T09:15:54.204Z,2.70
2022-09-27T09:19:10.458Z,3.70
2022-09-27T09:22:28.930Z,2.40
2022-09-27T09:25:42.197Z,1.40
2022-09-27T09:29:01.811Z,3.50
2022-09-27T09:32:18.682Z,2.83
2022-09-27T09:35:25.738Z,4.63
2022-09-27T09:38:38.179Z,1.40
2022-09-27T09:41:47.763Z,3.23
2022-09-27T09:44:56.889Z,1.73
2022-09-27T09:48:06.321Z,2.67
2022-09-27T09:51:16.234Z,1.77
2022-09-27T09:54:25.531Z,2.83
2022-09-27T09:57:34.825Z,1.10
2022-09-27T10:00:39.933Z,2.10
2022-09-27T10:03:44.192Z,1.50
2022-09-27T10:06:47.207Z,2.13
2022-09-27T10:09:50.549Z,1.90
2022-09-27T10:12:53.474Z,1.93
2022-09-27T10:16:01.137Z,3.80
2022-09-27T10:19:06.822Z,3.73
2022-09-27T10:22:17.772Z,2.60
2022-09-27T10:25:20.501Z,5.03
2022-09-27T10:28:37.317Z,1.40
2022-09-27T10:31:42.791Z,2.40
2022-09-27T10:34:46.851Z,1.87
2022-09-27T10:37:49.573Z,1.17
2022-09-27T10:40:53.835Z,3.43
2022-09-27T10:43:56.601Z,2.10
2022-09-27T10:47:01.972Z,3.33
2022-09-27T10:50:08.058Z,3.00
2022-09-27T10:53:15.542Z,2.23
2022-09-27T10:56:23.958Z,1.47
2022-09-27T10:59:30.571Z,1.90
2022-09-27T11:02:36.692Z,1.50
2022-09-27T11:05:41.476Z,1.63
2022-09-27T11:08:45.405Z,0.83
2022-09-27T11:11:48.079Z,2.17
2022-09-27T11:14:57.227Z,1.67
2022-09-27T11:18:08.058Z,1.67
2022-09-27T11:21:23.673Z,2.30
2022-09-27T11:24:41.594Z,3.50
2022-09-27T11:28:00.380Z,1.10
2022-09-27T11:31:18.833Z,1.30
2022-09-27T11:34:41.671Z,1.20
2022-09-27T11:37:58.346Z,3.67
2022-09-27T11:41:15.930Z,2.20
2022-09-27T11:44:34.982Z,0.90
2022-09-27T11:47:46.069Z,0.97
2022-09-27T11:51:14.382Z,2.33
2022-09-27T11:54:34.766Z,2.47
2022-09-27T11:57:42.911Z,2.03
2022-09-27T12:00:58.190Z,1.40
2022-09-27T12:04:22.118Z,0.90
2022-09-27T12:07:37.929Z,0.90
2022-09-27T12:10:47.410Z,1.63
2022-09-27T12:13:55.799Z,2.43
2022-09-27T12:16:58.893Z,1.93
2022-09-27T12:20:07.913Z,1.50
2022-09-27T12:23:17.661Z,0.60
2022-09-27T12:26:26.260Z,1.17
2022-09-27T12:29:33.780Z,1.07
2022-09-27T12:32:44.775Z,1.17
2022-09-27T12:35:51.432Z,3.40
2022-09-27T12:39:02.454Z,1.07
2022-09-27T12:42:17.367Z,2.00
2022-09-27T12:45:28.127Z,0.80
2022-09-27T12:48:41.567Z,0.90
2022-09-27T12:51:48.835Z,3.27
2022-09-27T12:55:04.352Z,2.40
2022-09-27T12:58:34.257Z,0.73
2022-09-27T13:02:33.802Z,0.70
2022-09-27T13:06:21.871Z,2.87
2022-09-27T13:09:39.952Z,1.17
2022-09-27T13:12:50.650Z,1.00
2022-09-27T13:15:57.867Z,1.43
2022-09-27T13:19:02.819Z,2.00
2022-09-27T13:22:06.031Z,1.53
2022-09-27T13:25:46.165Z,1.63
2022-09-27T13:29:03.491Z,1.10
2022-09-27T13:32:17.313Z,0.97
2022-09-27T13:35:23.048Z,3.33
2022-09-27T13:38:25.633Z,2.93
2022-09-27T13:41:34.983Z,5.13
2022-09-27T13:44:53.927Z,1.47
2022-09-27T13:48:00.246Z,1.00
2022-09-27T13:51:05.389Z,2.50
2022-09-27T13:54:38.816Z,0.97
2022-09-27T13:57:47.513Z,2.57
2022-09-27T14:00:52.612Z,1.57
2022-09-27T14:04:01.461Z,0.80
2022-09-27T14:07:05.449Z,1.80
2022-09-27T14:10:15.433Z,2.33
2022-09-27T14:13:21.202Z,1.83
2022-09-27T14:16:24.201Z,1.50
2022-09-27T14:19:28.884Z,1.10
2022-09-27T14:22:31.442Z,1.93
2022-09-27T14:25:34.073Z,1.23
2022-09-27T14:28:42.253Z,1.60
2022-09-27T14:31:44.989Z,3.37
2022-09-27T14:35:04.336Z,2.10
2022-09-27T14:38:33.125Z,1.47
2022-09-27T14:41:37.001Z,4.13
2022-09-27T14:44:45.961Z,3.57
2022-09-27T14:47:49.326Z,1.73
2022-09-27T14:51:04.791Z,3.13
2022-09-27T14:54:21.764Z,4.13
2022-09-27T14:57:24.414Z,3.83
2022-09-27T15:00:32.039Z,2.33
2022-09-27T15:03:42.406Z,3.60
2022-09-27T15:06:49.464Z,4.77
2022-09-27T15:09:52.919Z,6.13
2022-09-27T15:12:59.814Z,2.70
2022-09-27T15:16:02.881Z,3.43
2022-09-27T15:19:15.500Z,4.17
2022-09-27T15:22:24.898Z,4.60
2022-09-27T15:25:34.746Z,4.00
2022-09-27T15:28:39.229Z,4.13
2022-09-27T15:31:42.322Z,3.13
2022-09-27T15:34:45.091Z,4.00
2022-09-27T15:37:50.723Z,5.10
2022-09-27T15:40:59.941Z,3.40
2022-09-27T15:44:36.176Z,4.90
2022-09-27T15:47:56.729Z,2.97
2022-09-27T15:50:59.509Z,4.83
2022-09-27T15:54:03.330Z,2.77
2022-09-27T15:57:06.758Z,2.70
2022-09-27T16:00:14.574Z,5.17
2022-09-27T16:03:17.054Z,5.90
2022-09-27T16:06:19.772Z,4.33
2022-09-27T16:09:23.601Z,6.83
2022-09-27T16:12:29.963Z,3.10
2022-09-27T16:15:32.708Z,3.80
2022-09-27T16:18:35.205Z,3.23
2022-09-27T16:21:37.704Z,3.07
2022-09-27T16:24:41.520Z,5.43
2022-09-27T16:27:44.201Z,3.93
2022-09-27T16:30:47.815Z,8.93
2022-09-27T16:33:50.628Z,6.60
2022-09-27T16:36:53.113Z,8.30
2022-09-27T16:39:58.115Z,4.33
2022-09-27T16:43:00.669Z,2.57
2022-09-27T16:46:08.311Z,4.00
2022-09-27T16:49:31.292Z,3.33
2022-09-27T16:52:33.137Z,3.10
2022-09-27T16:55:37.735Z,3.00
2022-09-27T16:58:40.204Z,2.93
2022-09-27T17:01:42.762Z,2.90
2022-09-27T17:04:45.250Z,2.90
2022-09-27T17:07:51.281Z,1.73
2022-09-27T17:10:56.860Z,3.40
2022-09-27T17:13:59.514Z,4.27
2022-09-27T17:17:02.050Z,2.97
2022-09-27T17:20:05.036Z,5.30
2022-09-27T17:23:07.550Z,3.20
2022-09-27T17:26:17.009Z,7.50
2022-09-27T17:29:19.573Z,3.83
2022-09-27T17:32:24.125Z,4.30
2022-09-27T17:35:26.703Z,1.97
2022-09-27T17:38:29.679Z,3.57
2022-09-27T17:41:39.637Z,7.30
2022-09-27T17:44:42.471Z,6.57
2022-09-27T17:48:02.531Z,4.17
2022-09-27T17:51:05.162Z,2.40
2022-09-27T17:54:09.910Z,6.50
2022-09-27T17:57:13.777Z,3.13
2022-09-27T18:00:16.804Z,5.97
2022-09-27T18:03:20.008Z,4.30
2022-09-27T18:06:23.866Z,3.97
2022-09-27T18:09:27.074Z,4.67
2022-09-27T18:12:32.919Z,4.37
2022-09-27T18:15:37.286Z,4.90
2022-09-27T18:18:42.105Z,2.37
2022-09-27T18:21:45.096Z,3.20
2022-09-27T18:24:47.994Z,3.07
2022-09-27T18:27:53.015Z,6.50
2022-09-27T18:30:56.286Z,6.83
2022-09-27T18:33:58.810Z,4.30
2022-09-27T18:37:01.303Z,5.90
2022-09-27T18:40:04.014Z,4.27
2022-09-27T18:43:07.844Z,3.43
2022-09-27T18:46:34.536Z,3.80
2022-09-27T18:49:35.033Z,3.20
2022-09-27T18:52:37.558Z,2.70
2022-09-27T18:55:41.478Z,3.70
2022-09-27T18:58:45.617Z,4.30
2022-09-27T19:01:48.259Z,3.60
2022-09-27T19:04:50.917Z,4.40
2022-09-27T19:07:53.678Z,3.40
2022-09-27T19:10:56.256Z,4.33
2022-09-27T19:14:00.134Z,5.00
2022-09-27T19:17:02.655Z,5.17
2022-09-27T19:20:06.741Z,5.77
2022-09-27T19:23:09.368Z,6.10
2022-09-27T19:26:14.170Z,5.83
2022-09-27T19:29:18.181Z,4.53
2022-09-27T19:32:20.804Z,5.67
2022-09-27T19:35:23.350Z,3.70
2022-09-27T19:38:25.849Z,4.30
2022-09-27T19:41:28.693Z,4.50
2022-09-27T19:44:33.148Z,6.83
2022-09-27T19:47:35.620Z,4.63
2022-09-27T19:50:38.104Z,5.90
2022-09-27T19:53:40.602Z,4.27
2022-09-27T19:56:43.095Z,9.30
2022-09-27T19:59:46.924Z,5.80
2022-09-27T20:02:49.632Z,5.10
2022-09-27T20:05:55.523Z,5.90
2022-09-27T20:08:58.588Z,8.20
2022-09-27T20:12:01.871Z,6.87
2022-09-27T20:15:06.868Z,5.47
2022-09-27T20:18:09.522Z,6.80
2022-09-27T20:21:12.596Z,7.73
2022-09-27T20:24:15.265Z,6.17
2022-09-27T20:27:18.030Z,7.80
2022-09-27T20:30:21.948Z,4.93
2022-09-27T20:33:43.769Z,6.00
2022-09-27T20:36:46.289Z,6.90
2022-09-27T20:39:49.216Z,6.47
2022-09-27T20:42:51.912Z,17.90
2022-09-27T20:46:01.394Z,9.50
2022-09-27T20:49:06.130Z,6.07
2022-09-27T20:52:08.623Z,8.17
2022-09-27T20:55:11.768Z,9.30
2022-09-27T20:58:14.376Z,7.77
2022-09-27T21:01:19.002Z,8.73
2022-09-27T21:04:23.369Z,7.33
2022-09-27T21:07:26.877Z,5.63
2022-09-27T21:10:29.439Z,8.37
2022-09-27T21:13:32.042Z,7.73
2022-09-27T21:16:36.423Z,5.83
2022-09-27T21:19:39.288Z,8.87
2022-09-27T21:22:41.984Z,10.63
2022-09-27T21:25:44.676Z,5.93
2022-09-27T21:28:49.099Z,5.13
2022-09-27T21:31:53.342Z,5.73
2022-09-27T21:34:57.288Z,7.00
2022-09-27T21:38:00.015Z,5.70
2022-09-27T21:41:04.541Z,8.97
2022-09-27T21:44:07.873Z,8.03
2022-09-27T21:47:13.391Z,8.90
2022-09-27T21:50:16.374Z,5.80
2022-09-27T21:53:19.293Z,4.90
2022-09-27T21:56:22.809Z,5.33
2022-09-27T21:59:25.548Z,6.63
2022-09-27T22:02:30.099Z,5.63
2022-09-27T22:05:33.531Z,4.53
2022-09-27T22:08:36.222Z,8.23
2022-09-27T22:11:42.782Z,4.10
2022-09-27T22:14:45.840Z,5.73
2022-09-27T22:17:50.049Z,8.77
2022-09-27T22:20:52.629Z,7.23
2022-09-27T22:23:55.950Z,6.53
2022-09-27T22:26:58.670Z,7.20
2022-09-27T22:30:02.171Z,6.33
2022-09-27T22:33:06.154Z,5.90
2022-09-27T22:36:09.201Z,6.07
2022-09-27T22:39:12.345Z,7.67
2022-09-27T22:42:15.046Z,10.07
2022-09-27T22:45:18.891Z,10.57
2022-09-27T22:48:22.831Z,9.23
2022-09-27T22:51:25.485Z,9.40
2022-09-27T22:54:28.156Z,11.10
2022-09-27T22:57:30.996Z,8.37
2022-09-27T23:00:34.353Z,11.30
2022-09-27T23:03:38.433Z,8.87
2022-09-27T23:06:42.671Z,7.87
2022-09-27T23:09:45.314Z,7.63
2022-09-27T23:12:48.198Z,7.43
2022-09-27T23:15:51.802Z,13.00
2022-09-27T23:18:57.801Z,8.37
2022-09-27T23:22:00.584Z,7.17
2022-09-27T23:25:03.275Z,6.70
2022-09-27T23:28:05.919Z,5.60
2022-09-27T23:31:10.052Z,11.20
2022-09-27T23:34:15.255Z,9.10
2022-09-27T23:37:18.301Z,11.97
2022-09-27T23:40:20.991Z,8.43
2022-09-27T23:43:23.799Z,10.30
2022-09-27T23:46:26.643Z,5.10
2022-09-27T23:49:32.263Z,8.13
2022-09-27T23:52:34.921Z,6.47
2022-09-27T23:55:37.458Z,11.50
2022-09-27T23:58:42.183Z,5.77
